Albertson, North Carolina
Current Conditions -  °F | °C
As of 9:35 AM on Saturday 25 Oct 2014 (Local Time) from KDPL Reporting Station
Clear Clear  
Wind Chill: 55°   Ceiling: Unl
Heat Index: 55°   Visibility: 10mi
Dew Point: 47°   Wind: 3mph
Humidity: 77%   Direction: 360°N
Pressure: 30.01"   Gusts: NA
Location:  35.11°N, 77.82°W
Report Text: KDPL 251335Z AUTO 36003KT 10SM CLR 13/09 A3001 RMK AO2 T01250086
Loading
Personal Weather Stations






























Interactive Weather Map
Tropical Storm Tracking
New forecast layout! Learn more

10-Day Weather Forecast

Advertisements
Track Severe Weather on mobile